sensor_id;sensor_type;location;lat;lon;timestamp;P1;durP1;ratioP1;P2;durP2;ratioP2
73239;SDS011;61452;40.054;4.110;2023-02-28T00:04:23;31.10;;;6.97;;
73239;SDS011;61452;40.054;4.110;2023-02-28T00:09:25;22.15;;;6.10;;
73239;SDS011;61452;40.054;4.110;2023-02-28T00:14:29;29.52;;;6.13;;
73239;SDS011;61452;40.054;4.110;2023-02-28T00:19:32;27.92;;;5.40;;
73239;SDS011;61452;40.054;4.110;2023-02-28T00:24:34;28.05;;;6.32;;
73239;SDS011;61452;40.054;4.110;2023-02-28T00:29:36;27.55;;;5.75;;
73239;SDS011;61452;40.054;4.110;2023-02-28T00:34:39;29.20;;;7.03;;
73239;SDS011;61452;40.054;4.110;2023-02-28T00:39:42;24.23;;;5.40;;
73239;SDS011;61452;40.054;4.110;2023-02-28T00:44:44;30.52;;;5.25;;
73239;SDS011;61452;40.054;4.110;2023-02-28T00:49:46;27.77;;;6.05;;
73239;SDS011;61452;40.054;4.110;2023-02-28T00:54:49;29.00;;;5.45;;
73239;SDS011;61452;40.054;4.110;2023-02-28T00:59:51;25.85;;;4.95;;
73239;SDS011;61452;40.054;4.110;2023-02-28T01:04:55;31.17;;;6.72;;
73239;SDS011;61452;40.054;4.110;2023-02-28T01:09:58;23.55;;;5.65;;
73239;SDS011;61452;40.054;4.110;2023-02-28T01:15:00;31.50;;;6.05;;
73239;SDS011;61452;40.054;4.110;2023-02-28T01:20:03;33.30;;;6.95;;
73239;SDS011;61452;40.054;4.110;2023-02-28T01:25:05;38.63;;;6.65;;
73239;SDS011;61452;40.054;4.110;2023-02-28T01:30:08;37.20;;;9.60;;
73239;SDS011;61452;40.054;4.110;2023-02-28T01:35:11;34.08;;;7.20;;
73239;SDS011;61452;40.054;4.110;2023-02-28T01:40:14;26.90;;;5.75;;
73239;SDS011;61452;40.054;4.110;2023-02-28T01:45:18;27.10;;;7.47;;
73239;SDS011;61452;40.054;4.110;2023-02-28T01:50:34;32.67;;;6.93;;
73239;SDS011;61452;40.054;4.110;2023-02-28T01:55:40;44.72;;;7.78;;
73239;SDS011;61452;40.054;4.110;2023-02-28T02:00:44;34.00;;;6.47;;
73239;SDS011;61452;40.054;4.110;2023-02-28T02:05:48;34.35;;;5.72;;
73239;SDS011;61452;40.054;4.110;2023-02-28T02:10:51;30.92;;;6.47;;
73239;SDS011;61452;40.054;4.110;2023-02-28T02:37:21;31.40;;;6.38;;
73239;SDS011;61452;40.054;4.110;2023-02-28T02:42:38;42.30;;;6.57;;
73239;SDS011;61452;40.054;4.110;2023-02-28T02:47:44;35.58;;;6.57;;
73239;SDS011;61452;40.054;4.110;2023-02-28T02:52:48;30.13;;;5.55;;
73239;SDS011;61452;40.054;4.110;2023-02-28T02:58:01;31.23;;;6.38;;
73239;SDS011;61452;40.054;4.110;2023-02-28T03:03:07;29.45;;;5.38;;
73239;SDS011;61452;40.054;4.110;2023-02-28T03:08:11;30.48;;;5.40;;
73239;SDS011;61452;40.054;4.110;2023-02-28T03:24:18;26.45;;;5.35;;
73239;SDS011;61452;40.054;4.110;2023-02-28T03:34:39;24.73;;;4.57;;
73239;SDS011;61452;40.054;4.110;2023-02-28T03:39:56;23.63;;;5.50;;
73239;SDS011;61452;40.054;4.110;2023-02-28T03:45:10;25.17;;;4.93;;
73239;SDS011;61452;40.054;4.110;2023-02-28T03:50:22;31.45;;;6.57;;
73239;SDS011;61452;40.054;4.110;2023-02-28T04:00:40;27.10;;;5.35;;
73239;SDS011;61452;40.054;4.110;2023-02-28T04:05:52;27.42;;;5.35;;
73239;SDS011;61452;40.054;4.110;2023-02-28T04:10:57;21.15;;;4.75;;
73239;SDS011;61452;40.054;4.110;2023-02-28T04:16:08;21.75;;;4.40;;
73239;SDS011;61452;40.054;4.110;2023-02-28T04:21:37;26.40;;;6.00;;
73239;SDS011;61452;40.054;4.110;2023-02-28T04:26:41;21.13;;;4.47;;
73239;SDS011;61452;40.054;4.110;2023-02-28T04:31:45;21.15;;;4.35;;
73239;SDS011;61452;40.054;4.110;2023-02-28T04:36:48;24.00;;;5.38;;
73239;SDS011;61452;40.054;4.110;2023-02-28T04:42:13;19.60;;;4.53;;
73239;SDS011;61452;40.054;4.110;2023-02-28T04:47:15;25.50;;;5.07;;
73239;SDS011;61452;40.054;4.110;2023-02-28T04:52:18;23.05;;;5.47;;
73239;SDS011;61452;40.054;4.110;2023-02-28T04:57:20;21.65;;;4.05;;
73239;SDS011;61452;40.054;4.110;2023-02-28T05:02:22;20.45;;;4.70;;
73239;SDS011;61452;40.054;4.110;2023-02-28T05:07:25;18.10;;;4.57;;
73239;SDS011;61452;40.054;4.110;2023-02-28T05:12:27;18.48;;;4.63;;
73239;SDS011;61452;40.054;4.110;2023-02-28T05:17:30;23.42;;;4.55;;
73239;SDS011;61452;40.054;4.110;2023-02-28T05:22:32;18.58;;;3.90;;
73239;SDS011;61452;40.054;4.110;2023-02-28T05:27:34;23.15;;;5.10;;
73239;SDS011;61452;40.054;4.110;2023-02-28T05:32:40;18.15;;;4.22;;
73239;SDS011;61452;40.054;4.110;2023-02-28T05:37:46;13.73;;;3.55;;
73239;SDS011;61452;40.054;4.110;2023-02-28T05:42:50;23.75;;;4.60;;
73239;SDS011;61452;40.054;4.110;2023-02-28T05:47:55;16.45;;;3.53;;
73239;SDS011;61452;40.054;4.110;2023-02-28T05:52:57;14.65;;;3.60;;
73239;SDS011;61452;40.054;4.110;2023-02-28T05:58:00;19.63;;;3.70;;
73239;SDS011;61452;40.054;4.110;2023-02-28T06:03:02;21.95;;;4.30;;
73239;SDS011;61452;40.054;4.110;2023-02-28T06:08:04;14.57;;;4.00;;
73239;SDS011;61452;40.054;4.110;2023-02-28T06:13:09;14.00;;;3.97;;
73239;SDS011;61452;40.054;4.110;2023-02-28T06:18:13;15.40;;;3.25;;
73239;SDS011;61452;40.054;4.110;2023-02-28T06:23:15;15.70;;;3.45;;
73239;SDS011;61452;40.054;4.110;2023-02-28T06:28:17;14.82;;;3.40;;
73239;SDS011;61452;40.054;4.110;2023-02-28T06:33:20;14.07;;;3.65;;
73239;SDS011;61452;40.054;4.110;2023-02-28T06:38:22;16.50;;;3.10;;
73239;SDS011;61452;40.054;4.110;2023-02-28T06:43:24;18.88;;;3.60;;
73239;SDS011;61452;40.054;4.110;2023-02-28T06:48:30;12.23;;;3.22;;
73239;SDS011;61452;40.054;4.110;2023-02-28T06:53:36;16.00;;;3.30;;
73239;SDS011;61452;40.054;4.110;2023-02-28T06:58:38;15.70;;;3.17;;
73239;SDS011;61452;40.054;4.110;2023-02-28T07:03:41;13.55;;;3.03;;
73239;SDS011;61452;40.054;4.110;2023-02-28T07:08:44;14.63;;;2.97;;
73239;SDS011;61452;40.054;4.110;2023-02-28T07:13:46;15.55;;;3.03;;
73239;SDS011;61452;40.054;4.110;2023-02-28T07:18:49;12.10;;;2.97;;
73239;SDS011;61452;40.054;4.110;2023-02-28T07:23:51;16.23;;;4.07;;
73239;SDS011;61452;40.054;4.110;2023-02-28T07:28:53;17.30;;;3.45;;
73239;SDS011;61452;40.054;4.110;2023-02-28T07:33:55;13.32;;;3.28;;
73239;SDS011;61452;40.054;4.110;2023-02-28T07:38:58;17.60;;;3.22;;
73239;SDS011;61452;40.054;4.110;2023-02-28T07:44:00;12.70;;;3.20;;
73239;SDS011;61452;40.054;4.110;2023-02-28T07:49:03;16.02;;;3.03;;
73239;SDS011;61452;40.054;4.110;2023-02-28T07:54:06;13.25;;;2.75;;
73239;SDS011;61452;40.054;4.110;2023-02-28T07:59:09;14.95;;;3.13;;
73239;SDS011;61452;40.054;4.110;2023-02-28T08:04:11;15.55;;;2.85;;
73239;SDS011;61452;40.054;4.110;2023-02-28T08:09:13;13.00;;;3.22;;
73239;SDS011;61452;40.054;4.110;2023-02-28T08:14:16;15.05;;;3.65;;
73239;SDS011;61452;40.054;4.110;2023-02-28T08:19:19;15.60;;;3.25;;
73239;SDS011;61452;40.054;4.110;2023-02-28T08:24:21;13.60;;;3.50;;
73239;SDS011;61452;40.054;4.110;2023-02-28T08:29:24;18.58;;;3.80;;
73239;SDS011;61452;40.054;4.110;2023-02-28T08:34:26;15.50;;;3.88;;
73239;SDS011;61452;40.054;4.110;2023-02-28T08:39:28;14.13;;;3.83;;
73239;SDS011;61452;40.054;4.110;2023-02-28T08:44:31;17.15;;;3.58;;
73239;SDS011;61452;40.054;4.110;2023-02-28T08:49:33;12.52;;;3.17;;
73239;SDS011;61452;40.054;4.110;2023-02-28T08:54:35;15.57;;;3.40;;
73239;SDS011;61452;40.054;4.110;2023-02-28T08:59:37;14.50;;;3.47;;
73239;SDS011;61452;40.054;4.110;2023-02-28T09:04:40;14.63;;;3.20;;
73239;SDS011;61452;40.054;4.110;2023-02-28T09:09:43;15.30;;;3.30;;
73239;SDS011;61452;40.054;4.110;2023-02-28T09:14:56;14.65;;;3.40;;
73239;SDS011;61452;40.054;4.110;2023-02-28T09:19:58;17.40;;;3.45;;
73239;SDS011;61452;40.054;4.110;2023-02-28T09:25:00;12.77;;;2.60;;
73239;SDS011;61452;40.054;4.110;2023-02-28T09:30:03;12.20;;;3.58;;
73239;SDS011;61452;40.054;4.110;2023-02-28T09:35:05;11.98;;;3.05;;
73239;SDS011;61452;40.054;4.110;2023-02-28T09:40:09;14.30;;;2.75;;
73239;SDS011;61452;40.054;4.110;2023-02-28T09:45:27;13.20;;;2.85;;
73239;SDS011;61452;40.054;4.110;2023-02-28T09:50:40;15.00;;;2.67;;
73239;SDS011;61452;40.054;4.110;2023-02-28T09:55:58;16.23;;;3.97;;
73239;SDS011;61452;40.054;4.110;2023-02-28T10:06:20;14.60;;;2.92;;
73239;SDS011;61452;40.054;4.110;2023-02-28T10:11:28;14.32;;;3.03;;
73239;SDS011;61452;40.054;4.110;2023-02-28T10:16:41;13.60;;;3.08;;
73239;SDS011;61452;40.054;4.110;2023-02-28T10:22:23;13.63;;;3.33;;
73239;SDS011;61452;40.054;4.110;2023-02-28T10:27:21;13.63;;;3.47;;
73239;SDS011;61452;40.054;4.110;2023-02-28T10:32:33;17.45;;;3.53;;
73239;SDS011;61452;40.054;4.110;2023-02-28T10:37:40;15.75;;;3.13;;
73239;SDS011;61452;40.054;4.110;2023-02-28T10:58:24;13.63;;;3.42;;
73239;SDS011;61452;40.054;4.110;2023-02-28T11:08:32;13.48;;;3.70;;
73239;SDS011;61452;40.054;4.110;2023-02-28T11:13:36;16.38;;;3.70;;
73239;SDS011;61452;40.054;4.110;2023-02-28T11:24:12;17.85;;;3.55;;
73239;SDS011;61452;40.054;4.110;2023-02-28T11:29:25;14.90;;;3.08;;
73239;SDS011;61452;40.054;4.110;2023-02-28T11:34:29;14.32;;;3.13;;
73239;SDS011;61452;40.054;4.110;2023-02-28T11:39:33;14.35;;;3.03;;
73239;SDS011;61452;40.054;4.110;2023-02-28T11:44:57;17.13;;;3.92;;
73239;SDS011;61452;40.054;4.110;2023-02-28T11:50:34;11.75;;;3.22;;
73239;SDS011;61452;40.054;4.110;2023-02-28T12:01:24;16.67;;;3.45;;
73239;SDS011;61452;40.054;4.110;2023-02-28T12:16:59;14.05;;;3.28;;
73239;SDS011;61452;40.054;4.110;2023-02-28T12:23:07;18.35;;;4.03;;
73239;SDS011;61452;40.054;4.110;2023-02-28T12:27:50;23.10;;;5.00;;
73239;SDS011;61452;40.054;4.110;2023-02-28T12:38:30;21.05;;;4.55;;
73239;SDS011;61452;40.054;4.110;2023-02-28T12:43:48;34.25;;;7.57;;
73239;SDS011;61452;40.054;4.110;2023-02-28T12:48:58;35.28;;;6.53;;
73239;SDS011;61452;40.054;4.110;2023-02-28T13:09:54;35.95;;;8.77;;
73239;SDS011;61452;40.054;4.110;2023-02-28T13:15:04;36.15;;;7.60;;
73239;SDS011;61452;40.054;4.110;2023-02-28T13:20:17;52.25;;;9.40;;
73239;SDS011;61452;40.054;4.110;2023-02-28T13:46:34;38.63;;;8.48;;
73239;SDS011;61452;40.054;4.110;2023-02-28T13:51:44;36.53;;;9.18;;
73239;SDS011;61452;40.054;4.110;2023-02-28T14:07:50;37.72;;;8.00;;
73239;SDS011;61452;40.054;4.110;2023-02-28T14:13:00;47.50;;;9.32;;
73239;SDS011;61452;40.054;4.110;2023-02-28T14:18:03;32.33;;;7.55;;
73239;SDS011;61452;40.054;4.110;2023-02-28T14:28:55;35.50;;;7.35;;
73239;SDS011;61452;40.054;4.110;2023-02-28T14:34:21;42.42;;;8.18;;
73239;SDS011;61452;40.054;4.110;2023-02-28T14:39:27;39.15;;;7.60;;
73239;SDS011;61452;40.054;4.110;2023-02-28T14:44:36;36.95;;;8.50;;
73239;SDS011;61452;40.054;4.110;2023-02-28T14:49:42;36.45;;;6.80;;
73239;SDS011;61452;40.054;4.110;2023-02-28T14:55:06;36.58;;;6.97;;
73239;SDS011;61452;40.054;4.110;2023-02-28T15:05:26;39.20;;;8.32;;
73239;SDS011;61452;40.054;4.110;2023-02-28T15:10:29;41.90;;;9.45;;
73239;SDS011;61452;40.054;4.110;2023-02-28T15:15:42;37.47;;;7.20;;
73239;SDS011;61452;40.054;4.110;2023-02-28T15:21:05;34.10;;;7.78;;
73239;SDS011;61452;40.054;4.110;2023-02-28T15:26:31;36.38;;;7.35;;
73239;SDS011;61452;40.054;4.110;2023-02-28T15:31:35;35.47;;;7.85;;
73239;SDS011;61452;40.054;4.110;2023-02-28T15:36:57;31.17;;;6.82;;
73239;SDS011;61452;40.054;4.110;2023-02-28T15:42:09;42.85;;;7.75;;
73239;SDS011;61452;40.054;4.110;2023-02-28T15:47:19;34.25;;;8.45;;
73239;SDS011;61452;40.054;4.110;2023-02-28T15:52:33;32.40;;;7.20;;
73239;SDS011;61452;40.054;4.110;2023-02-28T15:57:40;41.22;;;6.82;;
73239;SDS011;61452;40.054;4.110;2023-02-28T16:02:42;34.22;;;7.10;;
73239;SDS011;61452;40.054;4.110;2023-02-28T16:07:45;38.72;;;8.23;;
73239;SDS011;61452;40.054;4.110;2023-02-28T16:12:48;39.05;;;7.43;;
73239;SDS011;61452;40.054;4.110;2023-02-28T16:17:51;44.85;;;7.57;;
73239;SDS011;61452;40.054;4.110;2023-02-28T16:22:54;35.10;;;8.55;;
73239;SDS011;61452;40.054;4.110;2023-02-28T16:27:56;43.08;;;8.52;;
73239;SDS011;61452;40.054;4.110;2023-02-28T16:33:01;28.10;;;7.63;;
73239;SDS011;61452;40.054;4.110;2023-02-28T16:38:04;32.75;;;7.60;;
73239;SDS011;61452;40.054;4.110;2023-02-28T16:43:11;34.00;;;8.23;;
73239;SDS011;61452;40.054;4.110;2023-02-28T16:48:18;25.02;;;6.90;;
73239;SDS011;61452;40.054;4.110;2023-02-28T16:53:20;41.03;;;8.73;;
73239;SDS011;61452;40.054;4.110;2023-02-28T16:58:23;35.30;;;8.63;;
73239;SDS011;61452;40.054;4.110;2023-02-28T17:03:27;37.92;;;9.63;;
73239;SDS011;61452;40.054;4.110;2023-02-28T17:08:34;35.53;;;7.82;;
73239;SDS011;61452;40.054;4.110;2023-02-28T17:13:36;35.10;;;8.00;;
73239;SDS011;61452;40.054;4.110;2023-02-28T17:18:38;40.63;;;8.23;;
73239;SDS011;61452;40.054;4.110;2023-02-28T17:23:41;39.08;;;8.52;;
73239;SDS011;61452;40.054;4.110;2023-02-28T17:28:43;32.67;;;6.82;;
73239;SDS011;61452;40.054;4.110;2023-02-28T17:33:45;32.83;;;7.88;;
73239;SDS011;61452;40.054;4.110;2023-02-28T17:38:48;28.20;;;7.10;;
73239;SDS011;61452;40.054;4.110;2023-02-28T17:43:50;32.15;;;6.53;;
73239;SDS011;61452;40.054;4.110;2023-02-28T17:48:52;32.92;;;7.25;;
73239;SDS011;61452;40.054;4.110;2023-02-28T17:53:55;35.33;;;7.40;;
73239;SDS011;61452;40.054;4.110;2023-02-28T17:58:57;26.58;;;7.80;;
73239;SDS011;61452;40.054;4.110;2023-02-28T18:03:59;31.02;;;6.85;;
73239;SDS011;61452;40.054;4.110;2023-02-28T18:09:02;27.90;;;6.38;;
73239;SDS011;61452;40.054;4.110;2023-02-28T18:14:04;29.33;;;7.40;;
73239;SDS011;61452;40.054;4.110;2023-02-28T18:19:06;37.53;;;7.43;;
73239;SDS011;61452;40.054;4.110;2023-02-28T18:24:10;32.60;;;8.05;;
73239;SDS011;61452;40.054;4.110;2023-02-28T18:29:23;28.65;;;6.72;;
73239;SDS011;61452;40.054;4.110;2023-02-28T18:34:27;32.38;;;7.13;;
73239;SDS011;61452;40.054;4.110;2023-02-28T18:39:31;31.88;;;7.25;;
73239;SDS011;61452;40.054;4.110;2023-02-28T18:44:33;29.55;;;6.78;;
73239;SDS011;61452;40.054;4.110;2023-02-28T18:49:37;31.77;;;7.18;;
73239;SDS011;61452;40.054;4.110;2023-02-28T18:54:39;32.47;;;7.78;;
73239;SDS011;61452;40.054;4.110;2023-02-28T18:59:41;35.92;;;7.78;;
73239;SDS011;61452;40.054;4.110;2023-02-28T19:04:43;35.20;;;6.88;;
73239;SDS011;61452;40.054;4.110;2023-02-28T19:09:46;26.98;;;6.45;;
73239;SDS011;61452;40.054;4.110;2023-02-28T19:14:48;29.92;;;6.60;;
73239;SDS011;61452;40.054;4.110;2023-02-28T19:19:50;33.08;;;6.80;;
73239;SDS011;61452;40.054;4.110;2023-02-28T19:24:52;39.53;;;8.25;;
73239;SDS011;61452;40.054;4.110;2023-02-28T19:29:54;31.85;;;6.75;;
73239;SDS011;61452;40.054;4.110;2023-02-28T19:34:59;30.17;;;7.88;;
73239;SDS011;61452;40.054;4.110;2023-02-28T19:40:02;35.80;;;7.65;;
73239;SDS011;61452;40.054;4.110;2023-02-28T19:45:04;31.45;;;8.10;;
73239;SDS011;61452;40.054;4.110;2023-02-28T19:50:07;35.83;;;8.45;;
73239;SDS011;61452;40.054;4.110;2023-02-28T19:55:10;34.55;;;7.03;;
73239;SDS011;61452;40.054;4.110;2023-02-28T20:00:13;33.72;;;7.65;;
73239;SDS011;61452;40.054;4.110;2023-02-28T20:05:16;33.92;;;7.32;;
73239;SDS011;61452;40.054;4.110;2023-02-28T20:10:18;32.67;;;7.60;;
73239;SDS011;61452;40.054;4.110;2023-02-28T20:15:20;35.92;;;7.70;;
73239;SDS011;61452;40.054;4.110;2023-02-28T20:20:23;37.45;;;7.88;;
73239;SDS011;61452;40.054;4.110;2023-02-28T20:25:25;28.55;;;7.90;;
73239;SDS011;61452;40.054;4.110;2023-02-28T20:30:27;31.98;;;7.18;;
73239;SDS011;61452;40.054;4.110;2023-02-28T20:35:29;31.55;;;8.07;;
73239;SDS011;61452;40.054;4.110;2023-02-28T20:40:32;33.45;;;9.07;;
73239;SDS011;61452;40.054;4.110;2023-02-28T20:45:34;35.92;;;7.97;;
73239;SDS011;61452;40.054;4.110;2023-02-28T20:50:36;26.58;;;7.20;;
73239;SDS011;61452;40.054;4.110;2023-02-28T20:55:38;34.28;;;6.78;;
73239;SDS011;61452;40.054;4.110;2023-02-28T21:00:41;32.25;;;8.10;;
73239;SDS011;61452;40.054;4.110;2023-02-28T21:05:43;31.27;;;7.90;;
73239;SDS011;61452;40.054;4.110;2023-02-28T21:10:45;32.83;;;9.18;;
73239;SDS011;61452;40.054;4.110;2023-02-28T21:15:47;34.67;;;7.45;;
73239;SDS011;61452;40.054;4.110;2023-02-28T21:20:49;35.78;;;7.78;;
73239;SDS011;61452;40.054;4.110;2023-02-28T21:25:51;35.40;;;8.23;;
73239;SDS011;61452;40.054;4.110;2023-02-28T21:30:58;40.08;;;7.65;;
73239;SDS011;61452;40.054;4.110;2023-02-28T21:36:02;27.63;;;6.38;;
73239;SDS011;61452;40.054;4.110;2023-02-28T21:41:14;37.80;;;9.05;;
73239;SDS011;61452;40.054;4.110;2023-02-28T21:46:18;37.38;;;8.13;;
73239;SDS011;61452;40.054;4.110;2023-02-28T21:51:24;39.03;;;9.27;;
73239;SDS011;61452;40.054;4.110;2023-02-28T21:56:29;36.10;;;9.45;;
73239;SDS011;61452;40.054;4.110;2023-02-28T22:06:40;35.05;;;7.88;;
73239;SDS011;61452;40.054;4.110;2023-02-28T22:11:42;31.02;;;7.25;;
73239;SDS011;61452;40.054;4.110;2023-02-28T22:16:44;37.15;;;9.13;;
73239;SDS011;61452;40.054;4.110;2023-02-28T22:21:53;28.90;;;6.80;;
73239;SDS011;61452;40.054;4.110;2023-02-28T22:26:55;33.17;;;7.93;;
73239;SDS011;61452;40.054;4.110;2023-02-28T22:31:59;30.98;;;6.53;;
73239;SDS011;61452;40.054;4.110;2023-02-28T22:37:01;36.85;;;7.90;;
73239;SDS011;61452;40.054;4.110;2023-02-28T22:42:03;27.20;;;6.90;;
73239;SDS011;61452;40.054;4.110;2023-02-28T22:47:05;32.45;;;7.35;;
73239;SDS011;61452;40.054;4.110;2023-02-28T22:52:07;24.15;;;7.43;;
73239;SDS011;61452;40.054;4.110;2023-02-28T22:57:10;28.48;;;7.65;;
73239;SDS011;61452;40.054;4.110;2023-02-28T23:02:14;35.60;;;7.22;;
73239;SDS011;61452;40.054;4.110;2023-02-28T23:07:16;30.10;;;7.30;;
73239;SDS011;61452;40.054;4.110;2023-02-28T23:12:19;30.25;;;7.43;;
73239;SDS011;61452;40.054;4.110;2023-02-28T23:17:21;41.13;;;8.52;;
73239;SDS011;61452;40.054;4.110;2023-02-28T23:22:23;36.00;;;9.50;;
73239;SDS011;61452;40.054;4.110;2023-02-28T23:27:25;34.30;;;7.18;;
73239;SDS011;61452;40.054;4.110;2023-02-28T23:32:28;35.15;;;8.38;;
73239;SDS011;61452;40.054;4.110;2023-02-28T23:37:30;24.92;;;6.95;;
73239;SDS011;61452;40.054;4.110;2023-02-28T23:42:33;37.63;;;7.57;;
73239;SDS011;61452;40.054;4.110;2023-02-28T23:47:36;34.65;;;7.75;;
73239;SDS011;61452;40.054;4.110;2023-02-28T23:52:38;28.52;;;6.68;;
73239;SDS011;61452;40.054;4.110;2023-02-28T23:57:40;32.08;;;6.20;;
